createdAt,value
2022-10-18T00:00:39.214Z,101236.66
2022-10-18T00:03:06.305Z,101288.47
2022-10-18T00:05:34.075Z,101293.06
2022-10-18T00:08:00.838Z,101258.19
2022-10-18T00:10:27.625Z,101299.25
2022-10-18T00:12:54.375Z,101258.34
2022-10-18T00:15:21.171Z,101311.41
2022-10-18T00:17:47.892Z,101291.88
2022-10-18T00:20:14.614Z,101271.44
2022-10-18T00:22:41.955Z,101309.31
2022-10-18T00:25:09.807Z,101337.63
2022-10-18T00:27:36.455Z,101322.63
2022-10-18T00:30:04.121Z,101334.91
2022-10-18T00:32:30.983Z,101340.84
2022-10-18T00:34:57.925Z,101317.53
2022-10-18T00:37:24.605Z,101357.22
2022-10-18T00:42:20.780Z,101378.38
2022-10-18T00:44:47.381Z,101375.84
2022-10-18T00:47:18.221Z,101346.78
2022-10-18T00:49:50.596Z,101350.31
2022-10-18T00:52:24.000Z,101379.59
2022-10-18T00:54:52.399Z,101393.72
2022-10-18T00:57:19.477Z,101396.19
2022-10-18T00:59:46.709Z,101422.41
2022-10-18T01:02:18.467Z,101406.88
2022-10-18T01:04:48.578Z,101396.34
2022-10-18T01:07:37.407Z,101446.00
2022-10-18T01:10:13.036Z,101457.56
2022-10-18T01:12:39.844Z,101474.53
2022-10-18T01:15:32.974Z,101470.72
2022-10-18T01:18:09.036Z,101477.59
2022-10-18T01:20:41.630Z,101485.47
2022-10-18T01:23:24.430Z,101495.84
2022-10-18T01:25:57.193Z,101514.50
2022-10-18T01:29:13.221Z,101521.91
2022-10-18T01:31:46.549Z,101462.59
2022-10-18T01:34:15.094Z,101539.41
2022-10-18T01:36:46.822Z,101509.94
2022-10-18T01:39:18.733Z,101518.72
2022-10-18T01:41:47.320Z,101522.25
2022-10-18T01:44:21.200Z,101541.47
2022-10-18T01:46:49.165Z,101502.19
2022-10-18T01:49:15.928Z,101564.16
2022-10-18T01:51:42.579Z,101552.84
2022-10-18T01:54:11.997Z,101569.69
2022-10-18T01:56:57.280Z,101586.78
2022-10-18T01:59:48.844Z,101587.03
2022-10-18T02:02:50.069Z,101585.22
2022-10-18T02:05:29.938Z,101555.34
2022-10-18T02:08:23.762Z,101612.09
2022-10-18T02:11:04.432Z,101621.66
2022-10-18T02:13:37.509Z,101609.88
2022-10-18T02:16:29.935Z,101634.41
2022-10-18T02:19:05.676Z,101626.44
2022-10-18T02:21:32.668Z,101648.97
2022-10-18T02:24:02.520Z,101641.00
2022-10-18T02:26:29.973Z,101642.75
2022-10-18T02:28:56.711Z,101661.63
2022-10-18T02:31:29.425Z,101663.25
2022-10-18T02:34:09.525Z,101686.81
2022-10-18T02:36:53.716Z,101682.75
2022-10-18T02:39:25.529Z,101657.00
2022-10-18T02:41:54.539Z,101670.69
2022-10-18T02:44:21.153Z,101660.78
2022-10-18T02:46:47.939Z,101679.41
2022-10-18T02:49:14.718Z,101652.41
2022-10-18T02:51:41.418Z,101662.78
2022-10-18T02:54:08.627Z,101671.97
2022-10-18T02:56:35.642Z,101668.91
2022-10-18T02:59:03.841Z,101675.22
2022-10-18T03:01:30.557Z,101709.16
2022-10-18T03:03:57.593Z,101712.59
2022-10-18T03:06:24.289Z,101687.69
2022-10-18T03:08:51.013Z,101700.56
2022-10-18T03:11:17.749Z,101724.34
2022-10-18T03:13:44.558Z,101670.75
2022-10-18T03:16:12.473Z,101708.53
2022-10-18T03:18:39.176Z,101713.16
2022-10-18T03:21:07.199Z,101749.38
2022-10-18T03:23:34.482Z,101753.53
2022-10-18T03:26:01.272Z,101755.06
2022-10-18T03:28:28.352Z,101730.75
2022-10-18T03:31:04.235Z,101756.41
2022-10-18T03:33:32.512Z,101728.81
2022-10-18T03:35:59.710Z,101759.56
2022-10-18T03:38:26.536Z,101788.72
2022-10-18T03:40:53.212Z,101770.94
2022-10-18T03:43:19.925Z,101767.84
2022-10-18T03:45:46.633Z,101789.16
2022-10-18T03:48:13.556Z,101788.72
2022-10-18T03:50:40.311Z,101781.88
2022-10-18T03:53:06.980Z,101784.97
2022-10-18T03:55:33.724Z,101767.19
2022-10-18T03:58:00.652Z,101780.91
2022-10-18T04:00:27.304Z,101795.69
2022-10-18T04:02:55.900Z,101813.16
2022-10-18T04:05:28.247Z,101818.13
2022-10-18T04:07:55.218Z,101775.81
2022-10-18T04:10:22.051Z,101807.72
2022-10-18T04:12:48.980Z,101811.16
2022-10-18T04:15:15.797Z,101807.09
2022-10-18T04:17:42.459Z,101839.91
2022-10-18T04:20:09.953Z,101816.13
2022-10-18T04:22:36.720Z,101836.28
2022-10-18T04:25:03.728Z,101852.00
2022-10-18T04:27:30.921Z,101865.19
2022-10-18T04:29:57.705Z,101844.56
2022-10-18T04:32:24.462Z,101835.03
2022-10-18T04:34:51.333Z,101860.03
2022-10-18T04:37:18.062Z,101841.34
2022-10-18T04:39:51.217Z,101874.03
2022-10-18T04:42:21.120Z,101894.69
2022-10-18T04:44:48.129Z,101893.84
2022-10-18T04:47:14.998Z,101894.09
2022-10-18T04:49:41.663Z,101903.25
2022-10-18T04:52:08.848Z,101906.91
2022-10-18T04:54:35.945Z,101920.47
2022-10-18T04:57:02.746Z,101886.16
2022-10-18T04:59:29.515Z,101922.56
2022-10-18T05:01:56.345Z,101912.81
2022-10-18T05:04:23.179Z,101908.97
2022-10-18T05:06:49.843Z,101918.56
2022-10-18T05:09:16.577Z,101878.81
2022-10-18T05:11:43.252Z,101884.84
2022-10-18T05:14:10.953Z,101891.75
2022-10-18T05:16:37.639Z,101898.88
2022-10-18T05:19:05.885Z,101940.47
2022-10-18T05:21:33.073Z,101918.75
2022-10-18T05:23:59.806Z,101907.47
2022-10-18T05:26:26.538Z,101944.34
2022-10-18T05:28:53.358Z,101960.06
2022-10-18T05:31:20.123Z,101934.19
2022-10-18T05:33:46.989Z,101969.59
2022-10-18T05:36:13.968Z,101912.88
2022-10-18T05:38:45.473Z,101952.56
2022-10-18T05:41:21.588Z,101987.91
2022-10-18T05:43:48.229Z,101995.00
2022-10-18T05:46:16.944Z,102000.41
2022-10-18T05:48:44.698Z,101991.53
2022-10-18T05:51:11.892Z,102022.81
2022-10-18T05:53:38.766Z,102003.81
2022-10-18T05:56:06.844Z,101987.38
2022-10-18T05:58:34.161Z,102010.34
2022-10-18T06:01:05.870Z,102010.25
2022-10-18T06:03:33.105Z,102007.22
2022-10-18T06:06:04.897Z,102027.91
2022-10-18T06:08:32.460Z,102029.97
2022-10-18T06:10:59.258Z,102048.28
2022-10-18T06:13:26.317Z,102000.41
2022-10-18T06:15:57.735Z,102032.41
2022-10-18T06:18:24.855Z,101998.63
2022-10-18T06:20:59.292Z,102047.00
2022-10-18T06:23:28.325Z,102054.78
2022-10-18T06:26:02.387Z,102048.00
2022-10-18T06:28:30.054Z,102060.25
2022-10-18T06:30:58.230Z,102042.31
2022-10-18T06:33:25.104Z,102040.63
2022-10-18T06:36:00.119Z,102058.88
2022-10-18T06:38:28.230Z,102097.97
2022-10-18T06:40:56.918Z,102078.84
2022-10-18T06:43:24.111Z,102090.78
2022-10-18T06:45:51.363Z,102098.72
2022-10-18T06:51:04.318Z,102085.94
2022-10-18T06:53:32.861Z,102083.25
2022-10-18T06:56:13.627Z,102090.28
2022-10-18T06:58:41.036Z,102063.63
2022-10-18T07:01:15.408Z,102067.91
2022-10-18T07:03:42.542Z,102090.50
2022-10-18T07:06:14.381Z,102123.63
2022-10-18T07:08:41.527Z,102107.16
2022-10-18T07:11:14.115Z,102042.34
2022-10-18T07:13:40.975Z,102048.31
2022-10-18T07:16:14.130Z,102097.63
2022-10-18T07:18:51.930Z,102059.69
2022-10-18T07:21:21.306Z,102094.22
2022-10-18T07:23:49.165Z,102118.47
2022-10-18T07:26:18.789Z,102126.44
2022-10-18T07:28:47.836Z,102165.31
2022-10-18T07:31:14.732Z,102147.16
2022-10-18T07:33:46.138Z,102148.88
2022-10-18T07:36:13.511Z,102159.28
2022-10-18T07:38:43.214Z,102182.72
2022-10-18T07:41:12.659Z,102182.06
2022-10-18T07:43:48.208Z,102195.94
2022-10-18T07:46:15.932Z,102200.09
2022-10-18T07:48:42.824Z,102187.13
2022-10-18T07:51:10.051Z,102159.50
2022-10-18T07:53:37.191Z,102182.72
2022-10-18T07:56:09.338Z,102187.13
2022-10-18T07:58:36.865Z,102215.66
2022-10-18T08:01:07.774Z,102186.97
2022-10-18T08:03:35.874Z,102186.28
2022-10-18T08:06:04.254Z,102214.50
2022-10-18T08:08:31.072Z,102250.53
2022-10-18T08:11:10.739Z,102212.19
2022-10-18T08:13:37.523Z,102258.34
2022-10-18T08:16:10.290Z,102214.09
2022-10-18T08:18:37.653Z,102214.81
2022-10-18T08:21:06.915Z,102242.13
2022-10-18T08:23:33.953Z,102251.22
2022-10-18T08:26:06.609Z,102262.25
2022-10-18T08:28:36.814Z,102254.34
2022-10-18T08:31:12.133Z,102289.06
2022-10-18T08:33:39.867Z,102274.13
2022-10-18T08:36:10.750Z,102302.03
2022-10-18T08:38:39.759Z,102261.03
2022-10-18T08:41:21.962Z,102319.28
2022-10-18T08:44:07.719Z,102324.88
2022-10-18T08:46:37.231Z,102318.84
2022-10-18T08:49:05.729Z,102294.69
2022-10-18T08:51:46.907Z,102336.66
2022-10-18T08:54:15.963Z,102310.44
2022-10-18T08:56:47.868Z,102331.25
2022-10-18T08:59:14.752Z,102298.56
2022-10-18T09:01:59.655Z,102334.69
2022-10-18T09:04:51.007Z,102351.78
2022-10-18T09:07:26.765Z,102358.00
2022-10-18T09:10:02.681Z,102355.06
2022-10-18T09:12:32.743Z,102368.66
2022-10-18T09:15:22.915Z,102361.81
2022-10-18T09:17:58.692Z,102371.72
2022-10-18T09:20:35.713Z,102377.53
2022-10-18T09:23:23.132Z,102386.56
2022-10-18T09:26:06.697Z,102363.53
2022-10-18T09:28:36.434Z,102380.25
2022-10-18T09:31:17.377Z,102345.91
2022-10-18T09:33:50.927Z,102335.19
2022-10-18T09:36:22.546Z,102356.38
2022-10-18T09:38:56.120Z,102347.06
2022-10-18T09:41:41.254Z,102368.03
2022-10-18T09:44:18.804Z,102385.09
2022-10-18T09:46:53.316Z,102391.47
2022-10-18T09:49:27.319Z,102412.22
2022-10-18T09:51:55.375Z,102378.44
2022-10-18T09:54:32.116Z,102363.25
2022-10-18T09:57:17.270Z,102400.38
2022-10-18T09:59:47.397Z,102388.03
2022-10-18T10:02:16.675Z,102388.47
2022-10-18T10:04:43.599Z,102391.69
2022-10-18T10:07:18.885Z,102389.44
2022-10-18T10:09:57.498Z,102435.63
2022-10-18T10:12:36.886Z,102398.19
2022-10-18T10:15:22.533Z,102422.09
2022-10-18T10:18:02.235Z,102417.31
2022-10-18T10:20:45.739Z,102434.34
2022-10-18T10:23:24.588Z,102457.88
2022-10-18T10:25:58.567Z,102470.84
2022-10-18T10:28:31.487Z,102459.25
2022-10-18T10:31:24.644Z,102444.47
2022-10-18T10:34:06.399Z,102360.47
2022-10-18T10:36:34.539Z,102412.81
2022-10-18T10:39:13.023Z,102481.53
2022-10-18T10:41:41.733Z,102459.88
2022-10-18T10:44:17.598Z,102480.44
2022-10-18T10:46:44.667Z,102455.25
2022-10-18T10:49:41.676Z,102472.34
2022-10-18T10:55:37.643Z,102461.34
2022-10-18T10:58:04.466Z,102468.81
2022-10-18T11:00:44.796Z,102423.53
2022-10-18T11:03:28.979Z,102471.63
2022-10-18T11:05:58.917Z,102482.63
2022-10-18T11:08:36.119Z,102434.88
2022-10-18T11:11:22.916Z,102469.22
2022-10-18T11:14:20.632Z,102476.91
2022-10-18T11:16:56.669Z,102473.38
2022-10-18T11:19:34.551Z,102477.53
2022-10-18T11:22:05.060Z,102461.59
2022-10-18T11:24:31.818Z,102475.59
2022-10-18T11:27:41.338Z,102518.78
2022-10-18T11:30:49.405Z,102481.25
2022-10-18T11:33:50.143Z,102478.41
2022-10-18T11:38:57.731Z,102510.28
2022-10-18T11:41:37.556Z,102477.50
2022-10-18T11:44:14.617Z,102493.75
2022-10-18T11:47:02.919Z,102489.84
2022-10-18T11:50:05.183Z,102522.59
2022-10-18T11:52:59.197Z,102525.00
2022-10-18T11:55:55.074Z,102507.31
2022-10-18T11:58:56.883Z,102513.66
2022-10-18T12:01:44.042Z,102517.69
2022-10-18T12:04:18.791Z,102524.69
2022-10-18T12:06:48.778Z,102518.84
2022-10-18T12:09:32.894Z,102496.59
2022-10-18T12:12:24.880Z,102469.59
2022-10-18T12:14:57.079Z,102513.00
2022-10-18T12:17:51.078Z,102529.97
2022-10-18T12:20:25.607Z,102521.75
2022-10-18T12:23:14.675Z,102513.50
2022-10-18T12:25:48.387Z,102529.88
2022-10-18T12:28:30.232Z,102538.00
2022-10-18T12:31:08.938Z,102536.72
2022-10-18T12:33:44.136Z,102513.31
2022-10-18T12:36:26.118Z,102533.38
2022-10-18T12:39:02.390Z,102485.09
2022-10-18T12:41:34.875Z,102536.38
2022-10-18T12:44:05.974Z,102534.31
2022-10-18T12:46:47.208Z,102513.75
2022-10-18T12:49:17.483Z,102537.81
2022-10-18T12:51:53.089Z,102530.81
2022-10-18T12:54:26.814Z,102514.75
2022-10-18T12:56:53.618Z,102528.47
2022-10-18T12:59:20.222Z,102543.53
2022-10-18T13:01:53.162Z,102543.13
2022-10-18T13:04:29.184Z,102545.44
2022-10-18T13:07:04.895Z,102540.34
2022-10-18T13:09:36.566Z,102540.16
2022-10-18T13:12:14.970Z,102550.03
2022-10-18T13:14:59.218Z,102547.94
2022-10-18T13:17:52.443Z,102543.78
2022-10-18T13:20:30.404Z,102554.28
2022-10-18T13:22:59.747Z,102563.31
2022-10-18T13:25:32.822Z,102566.69
2022-10-18T13:28:18.090Z,102570.94
2022-10-18T13:31:17.043Z,102568.56
2022-10-18T13:33:44.277Z,102545.97
2022-10-18T13:36:22.496Z,102554.56
2022-10-18T13:39:04.937Z,102568.91
2022-10-18T13:41:35.441Z,102567.25
2022-10-18T13:44:02.391Z,102580.94
2022-10-18T13:46:36.330Z,102574.50
2022-10-18T13:49:20.254Z,102557.88
2022-10-18T13:52:03.705Z,102513.66
2022-10-18T13:54:47.683Z,102583.00
2022-10-18T13:57:45.182Z,102534.41
2022-10-18T14:00:29.303Z,102559.22
2022-10-18T14:03:27.125Z,102575.56
2022-10-18T14:06:12.270Z,102571.22
2022-10-18T14:08:45.879Z,102567.97
2022-10-18T14:11:36.343Z,102553.41
2022-10-18T14:14:30.077Z,102548.56
2022-10-18T14:17:05.853Z,102555.66
2022-10-18T14:19:44.120Z,102551.22
2022-10-18T14:22:18.428Z,102538.28
2022-10-18T14:24:49.891Z,102532.97
2022-10-18T14:27:33.082Z,102558.06
2022-10-18T14:30:20.898Z,102544.81
2022-10-18T14:32:54.643Z,102528.84
2022-10-18T14:35:33.295Z,102535.88
2022-10-18T14:38:01.080Z,102564.69
2022-10-18T14:40:27.692Z,102567.72
2022-10-18T14:42:54.413Z,102527.50
2022-10-18T14:45:22.595Z,102565.06
2022-10-18T14:47:49.315Z,102539.56
2022-10-18T14:50:30.384Z,102539.69
2022-10-18T14:52:57.632Z,102548.94
2022-10-18T14:55:28.887Z,102542.28
2022-10-18T14:57:55.675Z,102531.06
2022-10-18T15:00:48.480Z,102545.25
2022-10-18T15:03:17.721Z,102561.16
2022-10-18T15:06:01.073Z,102557.59
2022-10-18T15:08:40.898Z,102570.53
2022-10-18T15:11:11.899Z,102583.66
2022-10-18T15:14:03.463Z,102577.31
2022-10-18T15:16:32.675Z,102574.34
2022-10-18T15:19:02.185Z,102574.53
2022-10-18T15:21:29.118Z,102560.75
2022-10-18T15:24:19.877Z,102573.75
2022-10-18T15:26:48.687Z,102591.47
2022-10-18T15:29:20.193Z,102599.34
2022-10-18T15:31:49.249Z,102592.47
2022-10-18T15:34:27.012Z,102574.44
2022-10-18T15:36:57.305Z,102569.56
2022-10-18T15:39:26.471Z,102590.44
2022-10-18T15:41:54.536Z,102600.84
2022-10-18T15:44:23.224Z,102604.34
2022-10-18T15:46:53.443Z,102576.78
2022-10-18T15:49:38.448Z,102614.13
2022-10-18T15:52:08.357Z,102610.19
2022-10-18T15:54:35.213Z,102605.84
2022-10-18T15:57:08.667Z,102582.34
2022-10-18T15:59:35.635Z,102539.78
2022-10-18T16:02:02.465Z,102577.09
2022-10-18T16:04:31.954Z,102597.78
2022-10-18T16:07:00.003Z,102595.31
2022-10-18T16:09:29.134Z,102533.38
2022-10-18T16:11:57.410Z,102592.66
2022-10-18T16:14:26.233Z,102576.41
2022-10-18T16:17:02.280Z,102614.69
2022-10-18T16:19:29.133Z,102587.72
2022-10-18T16:21:56.008Z,102601.50
2022-10-18T16:24:23.355Z,102595.28
2022-10-18T16:26:50.601Z,102599.88
2022-10-18T16:29:24.461Z,102573.84
2022-10-18T16:31:53.675Z,102607.56
2022-10-18T16:34:20.499Z,102598.25
2022-10-18T16:36:47.286Z,102542.50
2022-10-18T16:39:19.238Z,102560.09
2022-10-18T16:41:47.044Z,102632.16
2022-10-18T16:44:15.394Z,102630.63
2022-10-18T16:46:42.370Z,102577.75
2022-10-18T16:51:46.721Z,102583.88
2022-10-18T16:54:13.524Z,102619.63
2022-10-18T16:56:40.703Z,102611.13
2022-10-18T16:59:07.738Z,102638.97
2022-10-18T17:01:34.940Z,102596.53
2022-10-18T17:04:02.302Z,102621.81
2022-10-18T17:06:30.687Z,102601.22
2022-10-18T17:08:57.775Z,102621.41
2022-10-18T17:11:27.737Z,102604.13
2022-10-18T17:13:55.053Z,102630.19
2022-10-18T17:16:30.904Z,102574.72
2022-10-18T17:19:00.219Z,102663.25
2022-10-18T17:21:31.569Z,102609.56
2022-10-18T17:24:06.275Z,102613.97
2022-10-18T17:26:34.099Z,102597.53
2022-10-18T17:29:06.270Z,102599.28
2022-10-18T17:31:33.561Z,102668.84
2022-10-18T17:34:02.046Z,102661.03
2022-10-18T17:36:33.225Z,102614.19
2022-10-18T17:39:00.230Z,102626.41
2022-10-18T17:41:27.440Z,102687.38
2022-10-18T17:43:54.185Z,102632.56
2022-10-18T17:46:21.255Z,102641.38
2022-10-18T17:48:48.118Z,102618.88
2022-10-18T17:51:17.100Z,102631.88
2022-10-18T17:53:44.350Z,102682.31
2022-10-18T17:56:12.040Z,102683.34
2022-10-18T17:58:39.307Z,102652.88
2022-10-18T18:01:32.427Z,102685.06
2022-10-18T18:04:01.417Z,102654.78
2022-10-18T18:06:34.386Z,102706.13
2022-10-18T18:09:07.528Z,102692.19
2022-10-18T18:11:36.742Z,102710.59
2022-10-18T18:14:08.536Z,102664.63
2022-10-18T18:16:41.038Z,102704.59
2022-10-18T18:19:09.845Z,102677.69
2022-10-18T18:21:37.857Z,102691.56
2022-10-18T18:24:05.203Z,102689.91
2022-10-18T18:26:33.590Z,102685.50
2022-10-18T18:31:30.769Z,102717.78
2022-10-18T18:34:01.309Z,102720.44
2022-10-18T18:36:32.830Z,102708.22
2022-10-18T18:38:59.767Z,102650.84
2022-10-18T18:41:27.900Z,102700.44
2022-10-18T18:43:57.118Z,102736.16
2022-10-18T18:46:25.417Z,102681.38
2022-10-18T18:48:52.179Z,102689.28
2022-10-18T18:51:20.887Z,102709.34
2022-10-18T18:53:48.579Z,102732.78
2022-10-18T18:56:18.390Z,102733.69
2022-10-18T18:58:46.483Z,102725.91
2022-10-18T19:01:19.560Z,102684.19
2022-10-18T19:03:51.422Z,102722.47
2022-10-18T19:06:44.542Z,102747.78
2022-10-18T19:09:20.726Z,102754.78
2022-10-18T19:11:49.795Z,102722.63
2022-10-18T19:14:17.039Z,102730.47
2022-10-18T19:16:53.399Z,102753.09
2022-10-18T19:19:24.494Z,102733.94
2022-10-18T19:21:53.452Z,102730.44
2022-10-18T19:24:22.340Z,102739.13
2022-10-18T19:27:01.680Z,102738.28
2022-10-18T19:29:28.258Z,102734.81
2022-10-18T19:31:58.475Z,102733.94
2022-10-18T19:34:27.056Z,102720.03
2022-10-18T19:36:54.546Z,102730.50
2022-10-18T19:39:29.410Z,102690.50
2022-10-18T19:41:58.637Z,102717.53
2022-10-18T19:44:28.833Z,102737.56
2022-10-18T19:46:55.856Z,102738.47
2022-10-18T19:49:22.582Z,102713.22
2022-10-18T19:51:49.726Z,102710.59
2022-10-18T19:54:16.862Z,102713.22
2022-10-18T19:56:44.385Z,102699.31
2022-10-18T19:59:12.905Z,102725.44
2022-10-18T20:01:39.776Z,102715.00
2022-10-18T20:04:08.444Z,102715.84
2022-10-18T20:06:36.869Z,102718.47
2022-10-18T20:09:04.545Z,102750.72
2022-10-18T20:11:31.370Z,102748.13
2022-10-18T20:13:59.807Z,102752.47
2022-10-18T20:16:29.840Z,102752.47
2022-10-18T20:19:01.848Z,102738.50
2022-10-18T20:21:30.494Z,102727.19
2022-10-18T20:23:57.266Z,102736.78
2022-10-18T20:26:25.553Z,102747.25
2022-10-18T20:28:57.233Z,102739.38
2022-10-18T20:31:34.089Z,102752.47
2022-10-18T20:34:03.220Z,102738.53
2022-10-18T20:36:31.802Z,102719.38
2022-10-18T20:38:58.834Z,102744.63
2022-10-18T20:41:28.366Z,102744.66
2022-10-18T20:43:57.874Z,102691.50
2022-10-18T20:46:25.854Z,102716.75
2022-10-18T20:48:53.472Z,102757.72
2022-10-18T20:51:21.164Z,102747.22
2022-10-18T20:53:47.935Z,102746.38
2022-10-18T20:56:17.390Z,102737.66
2022-10-18T20:58:45.290Z,102749.84
2022-10-18T21:01:16.593Z,102730.69
2022-10-18T21:03:45.911Z,102751.63
2022-10-18T21:06:15.192Z,102745.50
2022-10-18T21:08:42.923Z,102744.63
2022-10-18T21:11:10.333Z,102749.84
2022-10-18T21:13:38.017Z,102750.72
2022-10-18T21:16:06.200Z,102738.50
2022-10-18T21:18:35.617Z,102721.97
2022-10-18T21:21:10.893Z,102764.69
2022-10-18T21:23:38.025Z,102762.94
2022-10-18T21:26:05.425Z,102751.63
2022-10-18T21:28:32.306Z,102759.44
2022-10-18T21:31:29.728Z,102759.44
2022-10-18T21:33:59.483Z,102743.75
2022-10-18T21:36:27.968Z,102739.38
2022-10-18T21:38:54.658Z,102736.78
2022-10-18T21:41:22.517Z,102754.19
2022-10-18T21:43:51.669Z,102757.69
2022-10-18T21:46:20.333Z,102741.13
2022-10-18T21:48:48.917Z,102738.47
2022-10-18T21:51:20.296Z,102760.28
2022-10-18T21:53:49.298Z,102768.09
2022-10-18T21:56:21.964Z,102759.41
2022-10-18T21:58:49.037Z,102756.78
2022-10-18T22:01:20.400Z,102762.00
2022-10-18T22:03:49.940Z,102760.28
2022-10-18T22:06:17.645Z,102761.16
2022-10-18T22:08:55.370Z,102753.28
2022-10-18T22:11:25.531Z,102763.75
2022-10-18T22:13:53.449Z,102756.81
2022-10-18T22:16:20.592Z,102742.00
2022-10-18T22:18:48.555Z,102736.78
2022-10-18T22:21:18.094Z,102748.09
2022-10-18T22:23:46.975Z,102731.56
2022-10-18T22:26:14.900Z,102740.25
2022-10-18T22:28:43.683Z,102733.28
2022-10-18T22:31:18.517Z,102733.31
2022-10-18T22:33:45.696Z,102728.09
2022-10-18T22:36:13.227Z,102719.34
2022-10-18T22:38:40.271Z,102721.97
2022-10-18T22:41:11.777Z,102733.28
2022-10-18T22:43:38.798Z,102696.66
2022-10-18T22:46:08.161Z,102723.63
2022-10-18T22:48:35.570Z,102741.00
2022-10-18T22:51:02.788Z,102740.94
2022-10-18T22:53:30.121Z,102717.41
2022-10-18T22:55:57.068Z,102747.13
2022-10-18T22:58:24.160Z,102743.66
2022-10-18T23:04:37.797Z,102715.63
2022-10-18T23:07:04.829Z,102728.66
2022-10-18T23:09:31.584Z,102732.13
2022-10-18T23:11:58.311Z,102709.41
2022-10-18T23:14:25.016Z,102722.50
2022-10-18T23:16:51.703Z,102724.38
2022-10-18T23:19:18.420Z,102699.13
2022-10-18T23:21:45.135Z,102726.25
2022-10-18T23:24:12.187Z,102729.78
2022-10-18T23:26:38.842Z,102705.38
2022-10-18T23:29:05.600Z,102709.75
2022-10-18T23:31:33.808Z,102725.41
2022-10-18T23:34:05.368Z,102728.88
2022-10-18T23:36:33.630Z,102712.31
2022-10-18T23:39:00.414Z,102707.00
2022-10-18T23:41:27.341Z,102741.03
2022-10-18T23:43:54.112Z,102702.59
2022-10-18T23:46:21.184Z,102720.88
2022-10-18T23:48:48.581Z,102735.69
2022-10-18T23:51:16.343Z,102730.47
2022-10-18T23:53:43.403Z,102711.28
2022-10-18T23:56:15.379Z,102706.88
2022-10-18T23:58:42.575Z,102714.75
